sensor_id;sensor_type;location;lat;lon;timestamp;P1;durP1;ratioP1;P2;durP2;ratioP2
61096;SDS011;46977;50.936;6.908;2023-04-06T00:01:27;7.10;;;5.60;;
61096;SDS011;46977;50.936;6.908;2023-04-06T00:04:31;8.48;;;5.97;;
61096;SDS011;46977;50.936;6.908;2023-04-06T00:07:33;6.22;;;5.43;;
61096;SDS011;46977;50.936;6.908;2023-04-06T00:10:36;8.73;;;5.43;;
61096;SDS011;46977;50.936;6.908;2023-04-06T00:13:38;7.00;;;5.53;;
61096;SDS011;46977;50.936;6.908;2023-04-06T00:16:41;7.05;;;5.07;;
61096;SDS011;46977;50.936;6.908;2023-04-06T00:19:45;6.95;;;5.60;;
61096;SDS011;46977;50.936;6.908;2023-04-06T00:22:47;6.97;;;5.30;;
61096;SDS011;46977;50.936;6.908;2023-04-06T00:25:50;7.65;;;5.30;;
61096;SDS011;46977;50.936;6.908;2023-04-06T00:28:52;9.02;;;6.20;;
61096;SDS011;46977;50.936;6.908;2023-04-06T00:31:54;6.15;;;5.30;;
61096;SDS011;46977;50.936;6.908;2023-04-06T00:34:58;8.48;;;6.07;;
61096;SDS011;46977;50.936;6.908;2023-04-06T00:38:02;9.85;;;6.15;;
61096;SDS011;46977;50.936;6.908;2023-04-06T00:41:04;9.60;;;5.55;;
61096;SDS011;46977;50.936;6.908;2023-04-06T00:44:07;10.77;;;6.45;;
61096;SDS011;46977;50.936;6.908;2023-04-06T00:47:09;8.65;;;6.40;;
61096;SDS011;46977;50.936;6.908;2023-04-06T00:50:13;7.85;;;6.32;;
61096;SDS011;46977;50.936;6.908;2023-04-06T00:53:15;8.77;;;6.82;;
61096;SDS011;46977;50.936;6.908;2023-04-06T00:56:18;9.15;;;5.95;;
61096;SDS011;46977;50.936;6.908;2023-04-06T00:59:24;8.02;;;6.05;;
61096;SDS011;46977;50.936;6.908;2023-04-06T01:02:28;9.70;;;6.63;;
61096;SDS011;46977;50.936;6.908;2023-04-06T01:05:34;7.75;;;6.15;;
61096;SDS011;46977;50.936;6.908;2023-04-06T01:08:37;9.43;;;6.18;;
61096;SDS011;46977;50.936;6.908;2023-04-06T01:11:50;7.03;;;6.38;;
61096;SDS011;46977;50.936;6.908;2023-04-06T01:14:57;7.35;;;5.70;;
61096;SDS011;46977;50.936;6.908;2023-04-06T01:18:01;5.80;;;5.22;;
61096;SDS011;46977;50.936;6.908;2023-04-06T01:21:06;6.63;;;5.07;;
61096;SDS011;46977;50.936;6.908;2023-04-06T01:24:12;8.15;;;5.10;;
61096;SDS011;46977;50.936;6.908;2023-04-06T01:27:31;9.10;;;5.05;;
61096;SDS011;46977;50.936;6.908;2023-04-06T01:30:54;6.57;;;5.65;;
61096;SDS011;46977;50.936;6.908;2023-04-06T01:34:19;8.15;;;5.22;;
61096;SDS011;46977;50.936;6.908;2023-04-06T01:37:22;6.28;;;5.25;;
61096;SDS011;46977;50.936;6.908;2023-04-06T01:40:29;7.97;;;5.03;;
61096;SDS011;46977;50.936;6.908;2023-04-06T01:43:32;6.47;;;5.35;;
61096;SDS011;46977;50.936;6.908;2023-04-06T01:46:38;5.00;;;4.53;;
61096;SDS011;46977;50.936;6.908;2023-04-06T01:49:42;8.10;;;5.22;;
61096;SDS011;46977;50.936;6.908;2023-04-06T01:52:45;7.40;;;5.18;;
61096;SDS011;46977;50.936;6.908;2023-04-06T01:55:49;6.25;;;4.65;;
61096;SDS011;46977;50.936;6.908;2023-04-06T01:58:59;6.07;;;5.37;;
61096;SDS011;46977;50.936;6.908;2023-04-06T02:02:09;5.50;;;4.18;;
61096;SDS011;46977;50.936;6.908;2023-04-06T02:05:13;5.05;;;4.40;;
61096;SDS011;46977;50.936;6.908;2023-04-06T02:08:16;7.07;;;4.68;;
61096;SDS011;46977;50.936;6.908;2023-04-06T02:11:20;4.75;;;4.00;;
61096;SDS011;46977;50.936;6.908;2023-04-06T02:14:26;7.57;;;4.60;;
61096;SDS011;46977;50.936;6.908;2023-04-06T02:17:32;9.57;;;4.97;;
61096;SDS011;46977;50.936;6.908;2023-04-06T02:20:35;7.32;;;5.45;;
61096;SDS011;46977;50.936;6.908;2023-04-06T02:23:37;7.38;;;4.97;;
61096;SDS011;46977;50.936;6.908;2023-04-06T02:26:41;5.80;;;4.97;;
61096;SDS011;46977;50.936;6.908;2023-04-06T02:29:44;5.68;;;4.93;;
61096;SDS011;46977;50.936;6.908;2023-04-06T02:32:47;6.13;;;5.30;;
61096;SDS011;46977;50.936;6.908;2023-04-06T02:35:50;5.53;;;4.80;;
61096;SDS011;46977;50.936;6.908;2023-04-06T02:38:52;4.88;;;4.28;;
61096;SDS011;46977;50.936;6.908;2023-04-06T02:41:56;6.93;;;4.30;;
61096;SDS011;46977;50.936;6.908;2023-04-06T02:45:00;6.60;;;5.05;;
61096;SDS011;46977;50.936;6.908;2023-04-06T02:48:08;5.38;;;4.82;;
61096;SDS011;46977;50.936;6.908;2023-04-06T02:51:11;5.55;;;4.43;;
61096;SDS011;46977;50.936;6.908;2023-04-06T02:54:16;4.40;;;3.72;;
61096;SDS011;46977;50.936;6.908;2023-04-06T02:57:20;8.88;;;4.57;;
61096;SDS011;46977;50.936;6.908;2023-04-06T03:00:24;5.43;;;4.70;;
61096;SDS011;46977;50.936;6.908;2023-04-06T03:03:27;8.07;;;4.47;;
61096;SDS011;46977;50.936;6.908;2023-04-06T03:06:31;5.60;;;4.97;;
61096;SDS011;46977;50.936;6.908;2023-04-06T03:09:44;5.13;;;4.55;;
61096;SDS011;46977;50.936;6.908;2023-04-06T03:12:48;5.03;;;4.50;;
61096;SDS011;46977;50.936;6.908;2023-04-06T03:15:55;5.85;;;4.03;;
61096;SDS011;46977;50.936;6.908;2023-04-06T03:18:58;6.10;;;4.53;;
61096;SDS011;46977;50.936;6.908;2023-04-06T03:22:01;5.50;;;4.03;;
61096;SDS011;46977;50.936;6.908;2023-04-06T03:25:04;5.47;;;4.13;;
61096;SDS011;46977;50.936;6.908;2023-04-06T03:28:09;4.40;;;4.07;;
61096;SDS011;46977;50.936;6.908;2023-04-06T03:31:21;6.65;;;4.65;;
61096;SDS011;46977;50.936;6.908;2023-04-06T03:34:29;5.93;;;4.53;;
61096;SDS011;46977;50.936;6.908;2023-04-06T03:37:32;4.80;;;4.10;;
61096;SDS011;46977;50.936;6.908;2023-04-06T03:40:37;6.00;;;4.55;;
61096;SDS011;46977;50.936;6.908;2023-04-06T03:43:41;5.65;;;4.82;;
61096;SDS011;46977;50.936;6.908;2023-04-06T03:46:43;7.25;;;4.20;;
61096;SDS011;46977;50.936;6.908;2023-04-06T03:49:46;6.78;;;4.25;;
61096;SDS011;46977;50.936;6.908;2023-04-06T03:52:49;6.28;;;4.45;;
61096;SDS011;46977;50.936;6.908;2023-04-06T03:55:52;7.28;;;4.75;;
61096;SDS011;46977;50.936;6.908;2023-04-06T03:58:56;6.30;;;5.65;;
61096;SDS011;46977;50.936;6.908;2023-04-06T04:01:59;8.75;;;4.68;;
61096;SDS011;46977;50.936;6.908;2023-04-06T04:05:02;5.10;;;4.38;;
61096;SDS011;46977;50.936;6.908;2023-04-06T04:08:05;10.52;;;4.70;;
61096;SDS011;46977;50.936;6.908;2023-04-06T04:11:07;9.95;;;4.85;;
61096;SDS011;46977;50.936;6.908;2023-04-06T04:14:11;5.00;;;4.38;;
61096;SDS011;46977;50.936;6.908;2023-04-06T04:17:14;6.07;;;4.28;;
61096;SDS011;46977;50.936;6.908;2023-04-06T04:20:16;5.70;;;4.55;;
61096;SDS011;46977;50.936;6.908;2023-04-06T04:23:19;4.75;;;4.25;;
61096;SDS011;46977;50.936;6.908;2023-04-06T04:26:22;5.22;;;4.72;;
61096;SDS011;46977;50.936;6.908;2023-04-06T04:29:26;8.80;;;5.03;;
61096;SDS011;46977;50.936;6.908;2023-04-06T04:32:29;7.85;;;4.80;;
61096;SDS011;46977;50.936;6.908;2023-04-06T04:35:34;8.02;;;4.57;;
61096;SDS011;46977;50.936;6.908;2023-04-06T04:38:37;4.53;;;4.15;;
61096;SDS011;46977;50.936;6.908;2023-04-06T04:41:39;7.53;;;4.72;;
61096;SDS011;46977;50.936;6.908;2023-04-06T04:44:46;5.35;;;4.68;;
61096;SDS011;46977;50.936;6.908;2023-04-06T04:47:53;7.93;;;5.03;;
61096;SDS011;46977;50.936;6.908;2023-04-06T04:50:59;5.65;;;4.75;;
61096;SDS011;46977;50.936;6.908;2023-04-06T04:54:10;8.55;;;5.38;;
61096;SDS011;46977;50.936;6.908;2023-04-06T04:57:14;7.85;;;5.03;;
61096;SDS011;46977;50.936;6.908;2023-04-06T05:00:20;6.43;;;5.43;;
61096;SDS011;46977;50.936;6.908;2023-04-06T05:03:24;6.45;;;4.97;;
61096;SDS011;46977;50.936;6.908;2023-04-06T05:06:38;5.38;;;4.82;;
61096;SDS011;46977;50.936;6.908;2023-04-06T05:09:41;5.65;;;4.43;;
61096;SDS011;46977;50.936;6.908;2023-04-06T05:12:44;7.38;;;4.80;;
61096;SDS011;46977;50.936;6.908;2023-04-06T05:15:48;4.50;;;4.10;;
61096;SDS011;46977;50.936;6.908;2023-04-06T05:19:01;10.80;;;5.28;;
61096;SDS011;46977;50.936;6.908;2023-04-06T05:22:12;6.03;;;4.67;;
61096;SDS011;46977;50.936;6.908;2023-04-06T05:25:20;4.60;;;4.20;;
61096;SDS011;46977;50.936;6.908;2023-04-06T05:28:26;5.20;;;4.25;;
61096;SDS011;46977;50.936;6.908;2023-04-06T05:31:30;8.27;;;6.22;;
61096;SDS011;46977;50.936;6.908;2023-04-06T05:34:33;6.57;;;4.57;;
61096;SDS011;46977;50.936;6.908;2023-04-06T05:37:39;5.00;;;4.25;;
61096;SDS011;46977;50.936;6.908;2023-04-06T05:40:42;4.35;;;3.90;;
61096;SDS011;46977;50.936;6.908;2023-04-06T05:43:49;5.20;;;4.63;;
61096;SDS011;46977;50.936;6.908;2023-04-06T05:46:52;4.95;;;4.40;;
61096;SDS011;46977;50.936;6.908;2023-04-06T05:49:55;5.80;;;4.05;;
61096;SDS011;46977;50.936;6.908;2023-04-06T05:53:06;5.00;;;4.50;;
61096;SDS011;46977;50.936;6.908;2023-04-06T05:56:15;4.45;;;4.00;;
61096;SDS011;46977;50.936;6.908;2023-04-06T05:59:19;5.05;;;4.18;;
61096;SDS011;46977;50.936;6.908;2023-04-06T06:02:24;5.43;;;4.70;;
61096;SDS011;46977;50.936;6.908;2023-04-06T06:05:28;4.00;;;3.42;;
61096;SDS011;46977;50.936;6.908;2023-04-06T06:08:35;4.75;;;4.32;;
61096;SDS011;46977;50.936;6.908;2023-04-06T06:11:43;4.43;;;4.00;;
61096;SDS011;46977;50.936;6.908;2023-04-06T06:14:49;5.60;;;3.78;;
61096;SDS011;46977;50.936;6.908;2023-04-06T06:17:54;4.63;;;3.92;;
61096;SDS011;46977;50.936;6.908;2023-04-06T06:20:56;4.70;;;3.78;;
61096;SDS011;46977;50.936;6.908;2023-04-06T06:24:00;4.47;;;3.80;;
61096;SDS011;46977;50.936;6.908;2023-04-06T06:27:03;4.18;;;3.78;;
61096;SDS011;46977;50.936;6.908;2023-04-06T06:30:08;4.72;;;3.33;;
61096;SDS011;46977;50.936;6.908;2023-04-06T06:33:15;6.43;;;4.13;;
61096;SDS011;46977;50.936;6.908;2023-04-06T06:36:18;4.78;;;4.28;;
61096;SDS011;46977;50.936;6.908;2023-04-06T06:39:21;5.00;;;3.88;;
61096;SDS011;46977;50.936;6.908;2023-04-06T06:42:25;5.00;;;3.92;;
61096;SDS011;46977;50.936;6.908;2023-04-06T06:45:40;4.20;;;3.80;;
61096;SDS011;46977;50.936;6.908;2023-04-06T06:48:44;5.40;;;4.63;;
61096;SDS011;46977;50.936;6.908;2023-04-06T06:51:46;5.43;;;4.18;;
61096;SDS011;46977;50.936;6.908;2023-04-06T06:54:49;4.38;;;3.63;;
61096;SDS011;46977;50.936;6.908;2023-04-06T06:57:53;3.83;;;3.47;;
61096;SDS011;46977;50.936;6.908;2023-04-06T07:00:57;5.32;;;3.85;;
61096;SDS011;46977;50.936;6.908;2023-04-06T07:04:01;5.47;;;4.80;;
61096;SDS011;46977;50.936;6.908;2023-04-06T07:07:04;6.22;;;4.05;;
61096;SDS011;46977;50.936;6.908;2023-04-06T07:10:07;5.38;;;3.90;;
61096;SDS011;46977;50.936;6.908;2023-04-06T07:13:12;4.15;;;3.75;;
61096;SDS011;46977;50.936;6.908;2023-04-06T07:16:20;5.10;;;3.88;;
61096;SDS011;46977;50.936;6.908;2023-04-06T07:19:24;5.50;;;4.40;;
61096;SDS011;46977;50.936;6.908;2023-04-06T07:22:26;5.85;;;4.07;;
61096;SDS011;46977;50.936;6.908;2023-04-06T07:25:28;5.40;;;4.13;;
61096;SDS011;46977;50.936;6.908;2023-04-06T07:28:31;4.50;;;4.10;;
61096;SDS011;46977;50.936;6.908;2023-04-06T07:31:36;4.55;;;4.15;;
61096;SDS011;46977;50.936;6.908;2023-04-06T07:34:40;6.15;;;5.00;;
61096;SDS011;46977;50.936;6.908;2023-04-06T07:37:42;5.10;;;4.28;;
61096;SDS011;46977;50.936;6.908;2023-04-06T07:40:45;5.15;;;4.65;;
61096;SDS011;46977;50.936;6.908;2023-04-06T07:43:48;4.43;;;4.00;;
61096;SDS011;46977;50.936;6.908;2023-04-06T07:46:50;4.60;;;4.05;;
61096;SDS011;46977;50.936;6.908;2023-04-06T07:49:57;11.27;;;5.18;;
61096;SDS011;46977;50.936;6.908;2023-04-06T07:52:59;4.72;;;4.28;;
61096;SDS011;46977;50.936;6.908;2023-04-06T07:56:03;4.88;;;4.38;;
61096;SDS011;46977;50.936;6.908;2023-04-06T07:59:05;4.93;;;4.22;;
61096;SDS011;46977;50.936;6.908;2023-04-06T08:02:08;5.90;;;4.93;;
61096;SDS011;46977;50.936;6.908;2023-04-06T08:05:12;5.85;;;4.90;;
61096;SDS011;46977;50.936;6.908;2023-04-06T08:08:15;6.47;;;4.95;;
61096;SDS011;46977;50.936;6.908;2023-04-06T08:11:17;4.95;;;4.55;;
61096;SDS011;46977;50.936;6.908;2023-04-06T08:14:20;4.93;;;4.45;;
61096;SDS011;46977;50.936;6.908;2023-04-06T08:17:23;5.35;;;4.85;;
61096;SDS011;46977;50.936;6.908;2023-04-06T08:20:27;4.50;;;3.95;;
61096;SDS011;46977;50.936;6.908;2023-04-06T08:23:30;5.15;;;4.65;;
61096;SDS011;46977;50.936;6.908;2023-04-06T08:26:32;4.75;;;4.40;;
61096;SDS011;46977;50.936;6.908;2023-04-06T08:29:35;5.00;;;4.40;;
61096;SDS011;46977;50.936;6.908;2023-04-06T08:32:37;5.82;;;4.97;;
61096;SDS011;46977;50.936;6.908;2023-04-06T08:35:41;7.25;;;5.43;;
61096;SDS011;46977;50.936;6.908;2023-04-06T08:38:44;5.13;;;4.70;;
61096;SDS011;46977;50.936;6.908;2023-04-06T08:41:47;4.55;;;4.15;;
61096;SDS011;46977;50.936;6.908;2023-04-06T08:44:49;6.32;;;4.50;;
61096;SDS011;46977;50.936;6.908;2023-04-06T08:47:54;4.90;;;4.40;;
61096;SDS011;46977;50.936;6.908;2023-04-06T08:51:00;5.63;;;5.00;;
61096;SDS011;46977;50.936;6.908;2023-04-06T08:54:03;6.10;;;4.85;;
61096;SDS011;46977;50.936;6.908;2023-04-06T08:57:05;5.10;;;4.60;;
61096;SDS011;46977;50.936;6.908;2023-04-06T09:00:10;5.50;;;5.00;;
61096;SDS011;46977;50.936;6.908;2023-04-06T09:03:13;5.45;;;4.88;;
61096;SDS011;46977;50.936;6.908;2023-04-06T09:06:17;6.32;;;5.63;;
61096;SDS011;46977;50.936;6.908;2023-04-06T09:09:20;5.82;;;5.30;;
61096;SDS011;46977;50.936;6.908;2023-04-06T09:12:26;6.45;;;5.82;;
61096;SDS011;46977;50.936;6.908;2023-04-06T09:15:29;7.05;;;4.90;;
61096;SDS011;46977;50.936;6.908;2023-04-06T09:18:32;8.07;;;5.80;;
61096;SDS011;46977;50.936;6.908;2023-04-06T09:21:37;5.30;;;4.90;;
61096;SDS011;46977;50.936;6.908;2023-04-06T09:24:41;6.68;;;5.38;;
61096;SDS011;46977;50.936;6.908;2023-04-06T09:27:45;9.25;;;5.15;;
61096;SDS011;46977;50.936;6.908;2023-04-06T09:30:48;6.72;;;4.97;;
61096;SDS011;46977;50.936;6.908;2023-04-06T09:33:51;6.22;;;5.60;;
61096;SDS011;46977;50.936;6.908;2023-04-06T09:36:55;6.43;;;5.68;;
61096;SDS011;46977;50.936;6.908;2023-04-06T09:40:01;7.65;;;5.18;;
61096;SDS011;46977;50.936;6.908;2023-04-06T09:43:05;5.40;;;4.90;;
61096;SDS011;46977;50.936;6.908;2023-04-06T09:46:08;7.50;;;5.32;;
61096;SDS011;46977;50.936;6.908;2023-04-06T09:49:11;6.00;;;5.32;;
61096;SDS011;46977;50.936;6.908;2023-04-06T09:52:16;6.15;;;5.13;;
61096;SDS011;46977;50.936;6.908;2023-04-06T09:55:21;5.85;;;5.03;;
61096;SDS011;46977;50.936;6.908;2023-04-06T09:58:27;8.15;;;4.93;;
61096;SDS011;46977;50.936;6.908;2023-04-06T10:01:32;7.68;;;5.68;;
61096;SDS011;46977;50.936;6.908;2023-04-06T10:04:37;8.52;;;5.60;;
61096;SDS011;46977;50.936;6.908;2023-04-06T10:07:44;7.40;;;5.65;;
61096;SDS011;46977;50.936;6.908;2023-04-06T10:11:01;5.93;;;5.35;;
61096;SDS011;46977;50.936;6.908;2023-04-06T10:14:04;6.63;;;5.07;;
61096;SDS011;46977;50.936;6.908;2023-04-06T10:17:06;7.00;;;5.72;;
61096;SDS011;46977;50.936;6.908;2023-04-06T10:20:10;6.68;;;5.55;;
61096;SDS011;46977;50.936;6.908;2023-04-06T10:23:19;6.55;;;5.63;;
61096;SDS011;46977;50.936;6.908;2023-04-06T10:26:26;7.15;;;5.35;;
61096;SDS011;46977;50.936;6.908;2023-04-06T10:29:40;7.57;;;5.35;;
61096;SDS011;46977;50.936;6.908;2023-04-06T10:32:44;7.07;;;5.47;;
61096;SDS011;46977;50.936;6.908;2023-04-06T10:35:49;7.82;;;5.72;;
61096;SDS011;46977;50.936;6.908;2023-04-06T10:38:57;6.97;;;5.85;;
61096;SDS011;46977;50.936;6.908;2023-04-06T10:42:05;6.90;;;5.57;;
61096;SDS011;46977;50.936;6.908;2023-04-06T10:45:18;10.20;;;6.47;;
61096;SDS011;46977;50.936;6.908;2023-04-06T10:48:21;8.55;;;6.05;;
61096;SDS011;46977;50.936;6.908;2023-04-06T10:51:26;8.68;;;5.57;;
61096;SDS011;46977;50.936;6.908;2023-04-06T10:54:30;7.43;;;5.85;;
61096;SDS011;46977;50.936;6.908;2023-04-06T10:57:34;6.28;;;5.20;;
61096;SDS011;46977;50.936;6.908;2023-04-06T11:00:43;8.25;;;5.97;;
61096;SDS011;46977;50.936;6.908;2023-04-06T11:03:52;8.02;;;5.32;;
61096;SDS011;46977;50.936;6.908;2023-04-06T11:06:56;9.18;;;6.05;;
61096;SDS011;46977;50.936;6.908;2023-04-06T11:10:01;8.98;;;5.55;;
61096;SDS011;46977;50.936;6.908;2023-04-06T11:13:17;7.38;;;5.90;;
61096;SDS011;46977;50.936;6.908;2023-04-06T11:16:20;8.63;;;5.85;;
61096;SDS011;46977;50.936;6.908;2023-04-06T11:19:24;10.45;;;5.97;;
61096;SDS011;46977;50.936;6.908;2023-04-06T11:22:26;10.10;;;6.22;;
61096;SDS011;46977;50.936;6.908;2023-04-06T11:25:30;10.02;;;6.50;;
61096;SDS011;46977;50.936;6.908;2023-04-06T11:28:34;8.15;;;5.80;;
61096;SDS011;46977;50.936;6.908;2023-04-06T11:31:39;15.70;;;6.07;;
61096;SDS011;46977;50.936;6.908;2023-04-06T11:34:42;6.65;;;5.28;;
61096;SDS011;46977;50.936;6.908;2023-04-06T11:37:44;6.63;;;5.65;;
61096;SDS011;46977;50.936;6.908;2023-04-06T11:40:53;8.05;;;5.43;;
61096;SDS011;46977;50.936;6.908;2023-04-06T11:43:56;7.95;;;5.85;;
61096;SDS011;46977;50.936;6.908;2023-04-06T11:46:58;8.32;;;5.35;;
61096;SDS011;46977;50.936;6.908;2023-04-06T11:50:08;7.00;;;4.82;;
61096;SDS011;46977;50.936;6.908;2023-04-06T11:53:11;7.25;;;5.63;;
61096;SDS011;46977;50.936;6.908;2023-04-06T11:56:23;5.13;;;4.63;;
61096;SDS011;46977;50.936;6.908;2023-04-06T11:59:27;6.57;;;4.85;;
61096;SDS011;46977;50.936;6.908;2023-04-06T12:02:29;6.60;;;5.25;;
61096;SDS011;46977;50.936;6.908;2023-04-06T12:05:34;6.60;;;5.20;;
61096;SDS011;46977;50.936;6.908;2023-04-06T12:08:36;6.82;;;5.32;;
61096;SDS011;46977;50.936;6.908;2023-04-06T12:11:40;9.35;;;5.10;;
61096;SDS011;46977;50.936;6.908;2023-04-06T12:14:43;6.32;;;4.78;;
61096;SDS011;46977;50.936;6.908;2023-04-06T12:17:45;6.50;;;4.93;;
61096;SDS011;46977;50.936;6.908;2023-04-06T12:20:48;7.03;;;5.57;;
61096;SDS011;46977;50.936;6.908;2023-04-06T12:23:50;6.40;;;4.95;;
61096;SDS011;46977;50.936;6.908;2023-04-06T12:26:54;6.38;;;5.53;;
61096;SDS011;46977;50.936;6.908;2023-04-06T12:30:11;5.53;;;4.93;;
61096;SDS011;46977;50.936;6.908;2023-04-06T12:33:14;8.68;;;5.57;;
61096;SDS011;46977;50.936;6.908;2023-04-06T12:36:18;8.00;;;5.07;;
61096;SDS011;46977;50.936;6.908;2023-04-06T12:39:21;6.55;;;5.72;;
61096;SDS011;46977;50.936;6.908;2023-04-06T12:42:26;6.07;;;4.85;;
61096;SDS011;46977;50.936;6.908;2023-04-06T12:45:29;5.57;;;4.72;;
61096;SDS011;46977;50.936;6.908;2023-04-06T12:48:32;9.10;;;5.32;;
61096;SDS011;46977;50.936;6.908;2023-04-06T12:51:37;5.90;;;4.43;;
61096;SDS011;46977;50.936;6.908;2023-04-06T12:54:41;4.88;;;4.30;;
61096;SDS011;46977;50.936;6.908;2023-04-06T12:57:45;4.97;;;4.40;;
61096;SDS011;46977;50.936;6.908;2023-04-06T13:00:48;3.53;;;3.22;;
61096;SDS011;46977;50.936;6.908;2023-04-06T13:03:52;4.03;;;3.70;;
61096;SDS011;46977;50.936;6.908;2023-04-06T13:06:54;7.82;;;2.70;;
61096;SDS011;46977;50.936;6.908;2023-04-06T13:09:57;3.03;;;2.75;;
61096;SDS011;46977;50.936;6.908;2023-04-06T13:13:01;4.55;;;3.38;;
61096;SDS011;46977;50.936;6.908;2023-04-06T13:16:04;3.60;;;3.30;;
61096;SDS011;46977;50.936;6.908;2023-04-06T13:19:07;3.47;;;3.10;;
61096;SDS011;46977;50.936;6.908;2023-04-06T13:22:10;4.15;;;2.90;;
61096;SDS011;46977;50.936;6.908;2023-04-06T13:28:17;3.47;;;3.10;;
61096;SDS011;46977;50.936;6.908;2023-04-06T13:31:20;4.18;;;3.78;;
61096;SDS011;46977;50.936;6.908;2023-04-06T13:34:22;4.05;;;3.28;;
61096;SDS011;46977;50.936;6.908;2023-04-06T13:37:25;3.22;;;2.78;;
61096;SDS011;46977;50.936;6.908;2023-04-06T13:40:27;3.40;;;3.10;;
61096;SDS011;46977;50.936;6.908;2023-04-06T13:43:31;4.30;;;2.97;;
61096;SDS011;46977;50.936;6.908;2023-04-06T13:46:33;6.22;;;3.58;;
61096;SDS011;46977;50.936;6.908;2023-04-06T13:49:36;3.65;;;2.90;;
61096;SDS011;46977;50.936;6.908;2023-04-06T13:52:39;5.03;;;3.75;;
61096;SDS011;46977;50.936;6.908;2023-04-06T13:55:41;4.63;;;3.45;;
61096;SDS011;46977;50.936;6.908;2023-04-06T13:58:45;5.35;;;3.70;;
61096;SDS011;46977;50.936;6.908;2023-04-06T14:01:47;3.00;;;2.58;;
61096;SDS011;46977;50.936;6.908;2023-04-06T14:04:50;5.60;;;3.13;;
61096;SDS011;46977;50.936;6.908;2023-04-06T14:07:52;3.75;;;2.80;;
61096;SDS011;46977;50.936;6.908;2023-04-06T14:10:55;3.10;;;2.58;;
61096;SDS011;46977;50.936;6.908;2023-04-06T14:14:00;3.00;;;2.65;;
61096;SDS011;46977;50.936;6.908;2023-04-06T14:17:02;3.47;;;2.75;;
61096;SDS011;46977;50.936;6.908;2023-04-06T14:20:05;3.03;;;2.38;;
61096;SDS011;46977;50.936;6.908;2023-04-06T14:23:08;3.08;;;2.78;;
61096;SDS011;46977;50.936;6.908;2023-04-06T14:26:11;3.55;;;2.45;;
61096;SDS011;46977;50.936;6.908;2023-04-06T14:29:16;2.92;;;2.13;;
61096;SDS011;46977;50.936;6.908;2023-04-06T14:32:19;2.90;;;2.60;;
61096;SDS011;46977;50.936;6.908;2023-04-06T14:35:22;4.15;;;2.72;;
61096;SDS011;46977;50.936;6.908;2023-04-06T14:38:26;3.65;;;2.95;;
61096;SDS011;46977;50.936;6.908;2023-04-06T14:41:28;3.25;;;2.72;;
61096;SDS011;46977;50.936;6.908;2023-04-06T14:44:33;6.95;;;2.65;;
61096;SDS011;46977;50.936;6.908;2023-04-06T14:47:38;2.40;;;2.20;;
61096;SDS011;46977;50.936;6.908;2023-04-06T14:50:41;2.20;;;2.00;;
61096;SDS011;46977;50.936;6.908;2023-04-06T14:53:48;2.30;;;2.10;;
61096;SDS011;46977;50.936;6.908;2023-04-06T14:56:50;4.07;;;2.20;;
61096;SDS011;46977;50.936;6.908;2023-04-06T14:59:54;2.33;;;2.05;;
61096;SDS011;46977;50.936;6.908;2023-04-06T15:02:56;2.75;;;2.50;;
61096;SDS011;46977;50.936;6.908;2023-04-06T15:05:59;2.40;;;2.20;;
61096;SDS011;46977;50.936;6.908;2023-04-06T15:09:01;2.47;;;2.28;;
61096;SDS011;46977;50.936;6.908;2023-04-06T15:12:04;3.42;;;2.40;;
61096;SDS011;46977;50.936;6.908;2023-04-06T15:15:09;3.22;;;2.10;;
61096;SDS011;46977;50.936;6.908;2023-04-06T15:18:12;3.38;;;2.95;;
61096;SDS011;46977;50.936;6.908;2023-04-06T15:21:15;2.67;;;2.20;;
61096;SDS011;46977;50.936;6.908;2023-04-06T15:24:17;3.72;;;3.33;;
61096;SDS011;46977;50.936;6.908;2023-04-06T15:27:19;4.72;;;2.78;;
61096;SDS011;46977;50.936;6.908;2023-04-06T15:30:27;3.10;;;2.58;;
61096;SDS011;46977;50.936;6.908;2023-04-06T15:33:30;3.60;;;3.20;;
61096;SDS011;46977;50.936;6.908;2023-04-06T15:36:32;3.20;;;3.00;;
61096;SDS011;46977;50.936;6.908;2023-04-06T15:39:34;3.80;;;3.40;;
61096;SDS011;46977;50.936;6.908;2023-04-06T15:42:38;4.30;;;2.63;;
61096;SDS011;46977;50.936;6.908;2023-04-06T15:45:42;3.80;;;3.25;;
61096;SDS011;46977;50.936;6.908;2023-04-06T15:48:45;4.15;;;3.67;;
61096;SDS011;46977;50.936;6.908;2023-04-06T15:51:47;3.83;;;3.08;;
61096;SDS011;46977;50.936;6.908;2023-04-06T15:54:50;4.18;;;3.45;;
61096;SDS011;46977;50.936;6.908;2023-04-06T15:57:52;4.07;;;3.67;;
61096;SDS011;46977;50.936;6.908;2023-04-06T16:00:56;3.95;;;3.55;;
61096;SDS011;46977;50.936;6.908;2023-04-06T16:03:58;4.65;;;3.83;;
61096;SDS011;46977;50.936;6.908;2023-04-06T16:07:01;6.57;;;4.40;;
61096;SDS011;46977;50.936;6.908;2023-04-06T16:10:04;4.28;;;3.83;;
61096;SDS011;46977;50.936;6.908;2023-04-06T16:13:08;4.20;;;3.78;;
61096;SDS011;46977;50.936;6.908;2023-04-06T16:16:11;5.05;;;3.85;;
61096;SDS011;46977;50.936;6.908;2023-04-06T16:19:13;4.82;;;3.80;;
61096;SDS011;46977;50.936;6.908;2023-04-06T16:22:16;4.40;;;3.53;;
61096;SDS011;46977;50.936;6.908;2023-04-06T16:25:18;7.45;;;4.70;;
61096;SDS011;46977;50.936;6.908;2023-04-06T16:28:20;7.03;;;4.47;;
61096;SDS011;46977;50.936;6.908;2023-04-06T16:31:25;5.00;;;4.28;;
61096;SDS011;46977;50.936;6.908;2023-04-06T16:34:29;6.28;;;5.53;;
61096;SDS011;46977;50.936;6.908;2023-04-06T16:37:32;4.93;;;4.20;;
61096;SDS011;46977;50.936;6.908;2023-04-06T16:40:36;4.45;;;3.75;;
61096;SDS011;46977;50.936;6.908;2023-04-06T16:43:38;4.82;;;4.00;;
61096;SDS011;46977;50.936;6.908;2023-04-06T16:46:42;6.80;;;4.55;;
61096;SDS011;46977;50.936;6.908;2023-04-06T16:49:45;6.63;;;4.57;;
61096;SDS011;46977;50.936;6.908;2023-04-06T16:52:48;5.55;;;3.92;;
61096;SDS011;46977;50.936;6.908;2023-04-06T16:55:50;5.03;;;4.15;;
61096;SDS011;46977;50.936;6.908;2023-04-06T16:58:52;3.92;;;3.50;;
61096;SDS011;46977;50.936;6.908;2023-04-06T17:01:56;4.55;;;3.40;;
61096;SDS011;46977;50.936;6.908;2023-04-06T17:04:59;4.50;;;3.75;;
61096;SDS011;46977;50.936;6.908;2023-04-06T17:08:02;4.32;;;3.30;;
61096;SDS011;46977;50.936;6.908;2023-04-06T17:11:04;2.45;;;2.25;;
61096;SDS011;46977;50.936;6.908;2023-04-06T17:14:07;6.05;;;4.00;;
61096;SDS011;46977;50.936;6.908;2023-04-06T17:17:11;4.10;;;3.70;;
61096;SDS011;46977;50.936;6.908;2023-04-06T17:20:13;5.63;;;3.78;;
61096;SDS011;46977;50.936;6.908;2023-04-06T17:23:15;9.30;;;4.53;;
61096;SDS011;46977;50.936;6.908;2023-04-06T17:26:18;4.90;;;4.07;;
61096;SDS011;46977;50.936;6.908;2023-04-06T17:29:20;6.75;;;4.30;;
61096;SDS011;46977;50.936;6.908;2023-04-06T17:32:24;6.05;;;4.35;;
61096;SDS011;46977;50.936;6.908;2023-04-06T17:35:28;5.15;;;3.95;;
61096;SDS011;46977;50.936;6.908;2023-04-06T17:38:31;5.13;;;4.53;;
61096;SDS011;46977;50.936;6.908;2023-04-06T17:41:33;4.68;;;3.42;;
61096;SDS011;46977;50.936;6.908;2023-04-06T17:44:35;4.22;;;3.25;;
61096;SDS011;46977;50.936;6.908;2023-04-06T17:47:39;5.70;;;4.65;;
61096;SDS011;46977;50.936;6.908;2023-04-06T17:50:42;5.30;;;4.25;;
61096;SDS011;46977;50.936;6.908;2023-04-06T17:53:44;5.47;;;3.95;;
61096;SDS011;46977;50.936;6.908;2023-04-06T17:56:47;5.75;;;4.40;;
61096;SDS011;46977;50.936;6.908;2023-04-06T17:59:50;10.13;;;5.35;;
61096;SDS011;46977;50.936;6.908;2023-04-06T18:02:54;5.80;;;4.75;;
61096;SDS011;46977;50.936;6.908;2023-04-06T18:05:56;7.63;;;4.72;;
61096;SDS011;46977;50.936;6.908;2023-04-06T18:09:10;6.07;;;4.80;;
61096;SDS011;46977;50.936;6.908;2023-04-06T18:12:12;5.50;;;3.47;;
61096;SDS011;46977;50.936;6.908;2023-04-06T18:15:14;6.40;;;5.20;;
61096;SDS011;46977;50.936;6.908;2023-04-06T18:18:21;5.72;;;5.22;;
61096;SDS011;46977;50.936;6.908;2023-04-06T18:21:23;8.57;;;5.60;;
61096;SDS011;46977;50.936;6.908;2023-04-06T18:24:28;5.85;;;4.78;;
61096;SDS011;46977;50.936;6.908;2023-04-06T18:27:43;5.63;;;4.75;;
61096;SDS011;46977;50.936;6.908;2023-04-06T18:30:45;6.75;;;4.03;;
61096;SDS011;46977;50.936;6.908;2023-04-06T18:33:49;6.07;;;4.38;;